
Distance (Route):
Temperature : -1.8°C
Humidity : 47.8%
Pressure : 0hPa| Receiver | Date | Latitude | Longitude | Direction | Speed | Altitude | Climb | Temperature | Humidity | Pressure | Voltage | Killtimer | Uptime | BKT | XDATA |
|---|---|---|---|---|---|---|---|---|---|---|---|---|---|---|---|
| LZ4TU-5 | 2026-09-05 13:10:44 | 44.80916 | 21.45445 | 87° | 55km/h | 4756m | -13.6m/s | -1.8°C | 47.8% | 0hPa | 5.6V | 00:00:00 | 00:00:00 | 00:00:00 | |
| LZ4TU-5 | 2026-09-05 13:10:40 | 44.80912 | 21.45367 | 88° | 55km/h | 4810m | -12.6m/s | -2.3°C | 48.7% | 0hPa | 5.6V | 00:00:00 | 00:00:00 | 00:00:00 | |
| LZ4TU-5 | 2026-09-05 13:10:35 | 44.80910 | 21.45270 | 90° | 55km/h | 4876m | -13.4m/s | -2.8°C | 49.4% | 0hPa | 5.6V | 00:00:00 | 00:00:00 | 00:00:00 | |
| LZ4TU-5 | 2026-09-05 13:10:30 | 44.80908 | 21.45175 | 91° | 55km/h | 4941m | -12.3m/s | -3.3°C | 48.7% | 0hPa | 5.6V | 00:00:00 | 00:00:00 | 00:00:00 | |
| LZ4TU-5 | 2026-09-05 13:09:45 | 44.80902 | 21.44295 | 90° | 58km/h | 5483m | -11.7m/s | -7.2°C | 39.4% | 0hPa | 5.6V | 00:00:00 | 00:00:00 | 00:00:00 | |
| LZ4TU-5 | 2026-09-05 13:09:41 | 44.80900 | 21.44213 | 89° | 58km/h | 5532m | -11.9m/s | -7.5°C | 0% | 0hPa | 5.6V | 00:00:00 | 00:00:00 | 00:00:00 | |
| LZ4TU-5 | 2026-09-05 13:09:14 | 44.80899 | 21.43658 | 92° | 57km/h | 5855m | -12.1m/s | -9.6°C | 38.3% | 0hPa | 5.6V | 00:00:00 | 00:00:00 | 00:00:00 | |
| LZ4TU-5 | 2026-09-05 13:09:09 | 44.80902 | 21.43556 | 94° | 58km/h | 5913m | -12.3m/s | -10.1°C | 41.1% | 0hPa | 5.6V | 00:00:00 | 00:00:00 | 00:00:00 | |
| LZ4TU-5 | 2026-09-05 13:08:24 | 44.80976 | 21.42589 | 94° | 60km/h | 6448m | -12.6m/s | -13.1°C | 23.7% | 0hPa | 5.6V | 00:00:00 | 00:00:00 | 00:00:00 | |
| LZ4TU-5 | 2026-09-05 13:08:19 | 44.80982 | 21.42484 | 95° | 58km/h | 6503m | -12.3m/s | -13.6°C | 30.4% | 0hPa | 5.6V | 00:00:00 | 00:00:00 | 00:00:00 | |
| LZ4TU-5 | 2026-09-05 13:01:45 | 44.81213 | 21.30640 | 86° | 110km/h | 11660m | -15.5m/s | -51.4°C | 31.6% | 0hPa | 5.6V | 00:00:00 | 00:00:00 | 00:00:00 | |
| LZ4TU-5 | 2026-09-05 13:01:41 | 44.81205 | 21.30484 | 87° | 110km/h | 11722m | -15.1m/s | -52.0°C | 31.7% | 0hPa | 5.6V | 00:00:00 | 00:00:00 | 00:00:00 | |
| LZ4TU-5 | 2026-09-05 12:59:39 | 44.81130 | 21.25844 | 92° | 91km/h | 13760m | -17.3m/s | -65.0°C | 10.5% | 0hPa | 5.6V | 00:00:00 | 00:00:00 | 00:00:00 | |
| LZ4TU-5 | 2026-09-05 12:59:34 | 44.81133 | 21.25680 | 92° | 89km/h | 13842m | -16.2m/s | -63.8°C | 9.4% | 0hPa | 5.6V | 00:00:00 | 00:00:00 | 00:00:00 | |
| LZ4TU-5 | 2026-09-05 12:56:42 | 44.81159 | 21.21723 | 65° | 46km/h | 17041m | -21.0m/s | -60.7°C | 3.1% | 0hPa | 5.6V | 00:00:00 | 00:00:00 | 00:00:00 | |
| LZ4TU-5 | 2026-09-05 12:56:38 | 44.81137 | 21.21663 | 63° | 49km/h | 17119m | -18.4m/s | -59.1°C | 2.8% | 0hPa | 5.6V | 00:00:00 | 00:00:00 | 00:00:00 | |
| LZ4TU-5 | 2026-09-05 12:56:32 | 44.81109 | 21.21562 | 79° | 49km/h | 17234m | -19.6m/s | -59.0°C | 2.6% | 0hPa | 5.6V | 00:00:00 | 00:00:00 | 00:00:00 | |
| LZ4TU-5 | 2026-09-05 12:56:27 | 44.81101 | 21.21479 | 83° | 42km/h | 17323m | -21.3m/s | -58.3°C | 2.4% | 0hPa | 5.6V | 00:00:00 | 00:00:00 | 00:00:00 | |
| LZ4TU-5 | 2026-09-05 12:56:22 | 44.81088 | 21.21405 | 74° | 44km/h | 17422m | -18.3m/s | -58.6°C | 2.8% | 0hPa | 5.6V | 00:00:00 | 00:00:00 | 00:00:00 | |
| LZ4TU-5 | 2026-09-05 12:56:18 | 44.81075 | 21.21343 | 77° | 46km/h | 17500m | -18.6m/s | -59.1°C | 2.8% | 0hPa | 5.6V | 00:00:00 | 00:00:00 | 00:00:00 | |
| LZ4TU-5 | 2026-09-05 12:52:41 | 44.80596 | 21.19642 | 66° | 20km/h | 22127m | -22.5m/s | -54.7°C | 2.7% | 0hPa | 5.6V | 00:00:00 | 00:00:00 | 00:00:00 | |
| LZ4TU-5 | 2026-09-05 12:52:36 | 44.80590 | 21.19610 | 91° | 15km/h | 22238m | -22.8m/s | -55.0°C | 2.9% | 0hPa | 5.6V | 00:00:00 | 00:00:00 | 00:00:00 | |
| LZ4TU-5 | 2026-09-05 12:50:04 | 44.80378 | 21.18993 | 98° | 31km/h | 25851m | -23.5m/s | -48.9°C | 3.4% | 0hPa | 5.6V | 00:00:00 | 00:00:00 | 00:00:00 | |
| LZ4TU-5 | 2026-09-05 12:49:59 | 44.80389 | 21.18949 | 121° | 18km/h | 25956m | -26.5m/s | -48.3°C | 3.3% | 0hPa | 5.6V | 00:00:00 | 00:00:00 | 00:00:00 | |
| OM5KV | 2026-09-05 12:49:19 | 44.80347 | 21.18738 | 72° | 27km/h | 26968m | -27.1m/s | -46.0°C | 3.2% | 0hPa | 5.6V | 00:00:00 | 00:00:00 | 00:00:00 | |
| OM5KV | 2026-09-05 12:49:14 | 44.80340 | 21.18692 | 85° | 22km/h | 27087m | -22.5m/s | -45.9°C | 3.3% | 0hPa | 5.6V | 00:00:00 | 00:00:00 | 00:00:00 | |
| OM5KV | 2026-09-05 12:49:04 | 44.80327 | 21.18634 | 76° | 16km/h | 27347m | -26.4m/s | -45.0°C | 3.3% | 0hPa | 5.6V | 00:00:00 | 00:00:00 | 00:00:00 | |
| OM5KV | 2026-09-05 12:48:57 | 44.80330 | 21.18584 | 110° | 20km/h | 27527m | -25.3m/s | -45.1°C | 3.1% | 0hPa | 5.6V | 00:00:00 | 00:00:00 | 00:00:00 | |
| OM5KV | 2026-09-05 12:48:51 | 44.80353 | 21.18553 | 155° | 26km/h | 27683m | -29.0m/s | -45.2°C | 3.2% | 0hPa | 5.6V | 00:00:00 | 00:00:00 | 00:00:00 | |
| OM5KV | 2026-09-05 12:48:39 | 44.80396 | 21.18522 | 83° | 7km/h | 27991m | -28.1m/s | -45.8°C | 3.4% | 0hPa | 5.6V | 00:00:00 | 00:00:00 | 00:00:00 | |
| LZ4TU-5 | 2026-09-05 12:48:38 | 44.80396 | 21.18519 | 64° | 9km/h | 28017m | -25.3m/s | -46.0°C | 3.4% | 0hPa | 5.6V | 00:00:00 | 00:00:00 | 00:00:00 | |
| LZ4TU-5 | 2026-09-05 12:48:34 | 44.80391 | 21.18503 | 114° | 9km/h | 28157m | -33.9m/s | -46.3°C | 3.5% | 0hPa | 5.6V | 00:00:00 | 00:00:00 | 00:00:00 | |
| OM5KV | 2026-09-05 12:48:32 | 44.80392 | 21.18500 | 130° | 11km/h | 28189m | -32.6m/s | -46.3°C | 3.5% | 0hPa | 5.6V | 00:00:00 | 00:00:00 | 00:00:00 | |
| OM5KV | 2026-09-05 12:48:26 | 44.80410 | 21.18486 | 172° | 13km/h | 28375m | -29.0m/s | -46.5°C | 3.8% | 0hPa | 5.6V | 00:00:00 | 00:00:00 | 00:00:00 | |
| OM5KV | 2026-09-05 12:48:21 | 44.80424 | 21.18489 | 211° | 7km/h | 28526m | -25.1m/s | -46.3°C | 3.9% | 0hPa | 5.6V | 00:00:00 | 00:00:00 | 00:00:00 | |
| OM5KV | 2026-09-05 12:48:13 | 44.80432 | 21.18509 | 316° | 9km/h | 28715m | -25.7m/s | -46.8°C | 4.1% | 0hPa | 5.6V | 00:00:00 | 00:00:00 | 00:00:00 | |
| OM5KV | 2026-09-05 12:48:08 | 44.80421 | 21.18513 | 358° | 7km/h | 28847m | -27.6m/s | -46.6°C | 4.0% | 0hPa | 5.6V | 00:00:00 | 00:00:00 | 00:00:00 | |
| OM5KV | 2026-09-05 12:48:02 | 44.80409 | 21.18507 | 52° | 11km/h | 29011m | -28.3m/s | -46.2°C | 4.1% | 0hPa | 5.6V | 00:00:00 | 00:00:00 | 00:00:00 | |
| OM5KV | 2026-09-05 12:47:57 | 44.80405 | 21.18502 | 326° | 5km/h | 29150m | -27.7m/s | -45.5°C | 3.9% | 0hPa | 5.6V | 00:00:00 | 00:00:00 | 00:00:00 | |
| OM5KV | 2026-09-05 12:47:49 | 44.80391 | 21.18505 | 16° | 7km/h | 29348m | -34.1m/s | -44.6°C | 3.8% | 0hPa | 5.6V | 00:00:00 | 00:00:00 | 00:00:00 | |
| OM5KV | 2026-09-05 12:47:44 | 44.80380 | 21.18502 | 3° | 7km/h | 29502m | -31.6m/s | -44.4°C | 3.9% | 0hPa | 5.6V | 00:00:00 | 00:00:00 | 00:00:00 | |
| OM5KV | 2026-09-05 12:47:39 | 44.80370 | 21.18504 | 28° | 4km/h | 29662m | -25.3m/s | -44.5°C | 3.9% | 0hPa | 5.6V | 00:00:00 | 00:00:00 | 00:00:00 | |
| OM5KV | 2026-09-05 12:47:33 | 44.80371 | 21.18500 | 210° | 5km/h | 29799m | -27.1m/s | -44.0°C | 3.9% | 0hPa | 5.6V | 00:00:00 | 00:00:00 | 00:00:00 | |
| LZ4TU-5 | 2026-09-05 12:47:25 | 44.80380 | 21.18518 | 265° | 9km/h | 30027m | -19.8m/s | -42.8°C | 3.7% | 0hPa | 5.6V | 00:00:00 | 00:00:00 | 00:00:00 | |
| OM5KV | 2026-09-05 12:47:22 | 44.80379 | 21.18526 | 301° | 11km/h | 30065m | -23.7m/s | -42.8°C | 3.7% | 0hPa | 5.6V | 00:00:00 | 00:00:00 | 00:00:00 | |
| LZ4TU-5 | 2026-09-05 12:47:19 | 44.80372 | 21.18535 | 341° | 13km/h | 30168m | -36.6m/s | -42.9°C | 3.7% | 0hPa | 5.6V | 00:00:00 | 00:00:00 | 00:00:00 | |
| OM5KV | 2026-09-05 12:47:16 | 44.80363 | 21.18537 | 18° | 9km/h | 30275m | -38.7m/s | -42.9°C | 3.9% | 0hPa | 5.6V | 00:00:00 | 00:00:00 | 00:00:00 | |
| LZ4TU-5 | 2026-09-05 12:47:13 | 44.80357 | 21.18534 | 28° | 7km/h | 30389m | -38.6m/s | -42.7°C | 3.7% | 0hPa | 5.6V | 00:00:00 | 00:00:00 | 00:00:00 | |
| OM5KV | 2026-09-05 12:47:10 | 44.80355 | 21.18532 | 135° | 2km/h | 30519m | -42.5m/s | -42.3°C | 3.7% | 0hPa | 5.6V | 00:00:00 | 00:00:00 | 00:00:00 | |
| LZ4TU-5 | 2026-09-05 12:47:09 | 44.80355 | 21.18530 | 115° | 4km/h | 30558m | -38.5m/s | -42.1°C | 3.6% | 0hPa | 5.6V | 00:00:00 | 00:00:00 | 00:00:00 | |
| OM5KV | 2026-09-05 12:47:04 | 44.80365 | 21.18520 | 158° | 13km/h | 30737m | -34.1m/s | -41.7°C | 3.6% | 0hPa | 5.6V | 00:00:00 | 00:00:00 | 00:00:00 | |
| OM5KV | 2026-09-05 12:46:58 | 44.80380 | 21.18522 | 258° | 4km/h | 30955m | -33.5m/s | -41.9°C | 3.8% | 0hPa | 5.6V | 00:00:00 | 00:00:00 | 00:00:00 | |
| OM5KV | 2026-09-05 12:46:42 | 44.80367 | 21.18547 | 342° | 7km/h | 31423m | -31.5m/s | -42.3°C | 4.0% | 0hPa | 5.6V | 00:00:00 | 00:00:00 | 00:00:00 | |
| OM5KV | 2026-09-05 12:46:41 | 44.80366 | 21.18549 | 336° | 4km/h | 31454m | -30.4m/s | -42.2°C | 3.7% | 0hPa | 5.6V | 00:00:00 | 00:00:00 | 00:00:00 | |
| OM5KV | 2026-09-05 12:46:37 | 44.80367 | 21.18550 | 157° | 4km/h | 31574m | -30.6m/s | -42.5°C | 3.9% | 0hPa | 5.6V | 00:00:00 | 00:00:00 | 00:00:00 | |
| OM5KV | 2026-09-05 12:46:36 | 44.80367 | 21.18549 | 0° | 0km/h | 31605m | -31.0m/s | -42.5°C | 3.9% | 0hPa | 5.6V | 00:00:00 | 00:00:00 | 00:00:00 | |
| OM5KV | 2026-09-05 12:46:31 | 44.80369 | 21.18542 | 90° | 7km/h | 31754m | -32.0m/s | -43.0°C | 4.3% | 0hPa | 5.6V | 00:00:00 | 00:00:00 | 00:00:00 | |
| OM5KV | 2026-09-05 12:46:30 | 44.80369 | 21.18539 | 89° | 7km/h | 31786m | -32.8m/s | -43.1°C | 4.3% | 0hPa | 5.6V | 00:00:00 | 00:00:00 | 00:00:00 | |
| OM5KV | 2026-09-05 12:46:25 | 44.80364 | 21.18537 | 357° | 9km/h | 31956m | -33.8m/s | -43.2°C | 4.5% | 0hPa | 5.6V | 00:00:00 | 00:00:00 | 00:00:00 | |
| OM5KV | 2026-09-05 12:46:24 | 44.80363 | 21.18537 | 2° | 9km/h | 31991m | -34.2m/s | -43.2°C | 4.5% | 0hPa | 5.6V | 00:00:00 | 00:00:00 | 00:00:00 | |
| OM5KV | 2026-09-05 12:46:19 | 44.80358 | 21.18539 | 27° | 2km/h | 32162m | -30.7m/s | -43.1°C | 4.5% | 0hPa | 5.6V | 00:00:00 | 00:00:00 | 00:00:00 | |
| OM5KV | 2026-09-05 12:46:12 | 44.80342 | 21.18522 | 87° | 9km/h | 32371m | -27.7m/s | -42.5°C | 4.6% | 0hPa | 5.6V | 00:00:00 | 00:00:00 | 00:00:00 | |
| OM5KV | 2026-09-05 12:46:11 | 44.80342 | 21.18518 | 85° | 13km/h | 32400m | -28.5m/s | -42.5°C | 4.6% | 0hPa | 5.6V | 00:00:00 | 00:00:00 | 00:00:00 | |
| OM5KV | 2026-09-05 12:46:06 | 44.80314 | 21.18475 | 43° | 38km/h | 32543m | -23.8m/s | -42.1°C | 4.5% | 0hPa | 5.6V | 00:00:00 | 00:00:00 | 00:00:00 | |
| OM5KV | 2026-09-05 12:46:05 | 44.80308 | 21.18468 | 106° | 9km/h | 32568m | -17.8m/s | -42.0°C | 4.4% | 0hPa | 5.6V | 00:00:00 | 00:00:00 | 00:00:00 | |
| OM5KV | 2026-09-05 12:45:53 | 44.80297 | 21.18427 | 64° | 26km/h | 32528m | 8.6m/s | -42.3°C | 4.5% | 0hPa | 5.6V | 00:00:00 | 00:00:00 | 00:00:00 | |
| OM5KV | 2026-09-05 12:45:41 | 44.80272 | 21.18360 | 88° | 29km/h | 32436m | 7.3m/s | -42.5°C | 4.7% | 0hPa | 5.6V | 00:00:00 | 00:00:00 | 00:00:00 | |
| OM5KV | 2026-09-05 12:45:35 | 44.80252 | 21.18353 | 10° | 18km/h | 32394m | 6.0m/s | -42.3°C | 4.4% | 0hPa | 5.6V | 00:00:00 | 00:00:00 | 00:00:00 | |
| OM5KV | 2026-09-05 12:45:34 | 44.80247 | 21.18349 | 44° | 22km/h | 32384m | 9.5m/s | -42.3°C | 4.5% | 0hPa | 5.6V | 00:00:00 | 00:00:00 | 00:00:00 | |
| OM5KV | 2026-09-05 12:45:29 | 44.80248 | 21.18298 | 139° | 16km/h | 32351m | 8.4m/s | -42.5°C | 4.6% | 0hPa | 5.6V | 00:00:00 | 00:00:00 | 00:00:00 | |
| OM5KV | 2026-09-05 12:45:24 | 44.80232 | 21.18321 | 9° | 24km/h | 32309m | 7.3m/s | -42.6°C | 4.7% | 0hPa | 5.6V | 00:00:00 | 00:00:00 | 00:00:00 | |
| OM5KV | 2026-09-05 12:45:23 | 44.80227 | 21.18318 | 49° | 22km/h | 32302m | 6.9m/s | -42.6°C | 4.6% | 0hPa | 5.6V | 00:00:00 | 00:00:00 | 00:00:00 | |
| OM5KV | 2026-09-05 12:45:19 | 44.80233 | 21.18292 | 147° | 26km/h | 32273m | 5.6m/s | -42.7°C | 4.7% | 0hPa | 5.6V | 00:00:00 | 00:00:00 | 00:00:00 | |
| OM5KV | 2026-09-05 12:45:18 | 44.80238 | 21.18287 | 149° | 20km/h | 32265m | 7.5m/s | -42.6°C | 4.7% | 0hPa | 5.6V | 00:00:00 | 00:00:00 | 00:00:00 | |
| LZ4TU-5 | 2026-09-05 12:45:14 | 44.80227 | 21.18296 | 319° | 31km/h | 32234m | 7.5m/s | -42.7°C | 4.7% | 0hPa | 5.6V | 00:00:00 | 00:00:00 | 00:00:00 | |
| OM5KV | 2026-09-05 12:45:13 | 44.80223 | 21.18304 | 303° | 27km/h | 32226m | 7.7m/s | -42.7°C | 4.7% | 0hPa | 5.6V | 00:00:00 | 00:00:00 | 00:00:00 | |
| OM5KV | 2026-09-05 12:45:12 | 44.80220 | 21.18312 | 283° | 20km/h | 32219m | 7.0m/s | -42.6°C | 4.7% | 0hPa | 5.6V | 00:00:00 | 00:00:00 | 00:00:00 | |
| OM5KV | 2026-09-05 12:45:08 | 44.80223 | 21.18308 | 114° | 20km/h | 32187m | 5.9m/s | -42.6°C | 4.7% | 0hPa | 5.6V | 00:00:00 | 00:00:00 | 00:00:00 | |
| OM5KV | 2026-09-05 12:44:57 | 44.80203 | 21.18314 | 139° | 15km/h | 32101m | 7.0m/s | -42.7°C | 4.6% | 0hPa | 5.6V | 00:00:00 | 00:00:00 | 00:00:00 | |
| OM5KV | 2026-09-05 12:44:55 | 44.80209 | 21.18303 | 119° | 24km/h | 32085m | 9.0m/s | -42.6°C | 4.6% | 0hPa | 5.6V | 00:00:00 | 00:00:00 | 00:00:00 | |
| OM5KV | 2026-09-05 12:44:50 | 44.80192 | 21.18308 | 278° | 37km/h | 32039m | 6.2m/s | -42.6°C | 4.6% | 0hPa | 5.6V | 00:00:00 | 00:00:00 | 00:00:00 | |
| OM5KV | 2026-09-05 12:44:44 | 44.80194 | 21.18322 | 107° | 29km/h | 32002m | 9.0m/s | -42.6°C | 4.7% | 0hPa | 5.6V | 00:00:00 | 00:00:00 | 00:00:00 | |
| OM5KV | 2026-09-05 12:44:43 | 44.80196 | 21.18312 | 109° | 27km/h | 31994m | 7.1m/s | -42.6°C | 4.7% | 0hPa | 5.6V | 00:00:00 | 00:00:00 | 00:00:00 | |
| OM5KV | 2026-09-05 12:44:38 | 44.80191 | 21.18323 | 291° | 29km/h | 31953m | 8.2m/s | -42.5°C | 4.7% | 0hPa | 5.6V | 00:00:00 | 00:00:00 | 00:00:00 | |
| OM5KV | 2026-09-05 12:44:37 | 44.80189 | 21.18333 | 289° | 27km/h | 31948m | 5.4m/s | -42.4°C | 4.7% | 0hPa | 5.6V | 00:00:00 | 00:00:00 | 00:00:00 | |
| OM5KV | 2026-09-05 12:44:32 | 44.80197 | 21.18343 | 128° | 31km/h | 31910m | 8.2m/s | -42.5°C | 4.6% | 0hPa | 5.6V | 00:00:00 | 00:00:00 | 00:00:00 | |
| OM5KV | 2026-09-05 12:44:21 | 44.80198 | 21.18334 | 102° | 37km/h | 31827m | 11.4m/s | -42.5°C | 4.7% | 0hPa | 5.6V | 00:00:00 | 00:00:00 | 00:00:00 | |
| OM5KV | 2026-09-05 12:44:20 | 44.80199 | 21.18320 | 86° | 44km/h | 31821m | 6.2m/s | -42.5°C | 4.8% | 0hPa | 5.6V | 00:00:00 | 00:00:00 | 00:00:00 | |
| OM5KV | 2026-09-05 12:44:15 | 44.80196 | 21.18297 | 242° | 22km/h | 31781m | 8.2m/s | -42.3°C | 4.7% | 0hPa | 5.6V | 00:00:00 | 00:00:00 | 00:00:00 | |
| OM5KV | 2026-09-05 12:44:13 | 44.80199 | 21.18312 | 272° | 20km/h | 31768m | 7.0m/s | -42.2°C | 4.3% | 0hPa | 5.6V | 00:00:00 | 00:00:00 | 00:00:00 | |
| OM5KV | 2026-09-05 12:44:08 | 44.80198 | 21.18293 | 113° | 33km/h | 31728m | 5.9m/s | -42.1°C | 4.5% | 0hPa | 5.6V | 00:00:00 | 00:00:00 | 00:00:00 | |
| OM5KV | 2026-09-05 12:44:07 | 44.80201 | 21.18283 | 115° | 29km/h | 31723m | 6.0m/s | -42.0°C | 4.5% | 0hPa | 5.6V | 00:00:00 | 00:00:00 | 00:00:00 | |
| OM5KV | 2026-09-05 12:44:03 | 44.80202 | 21.18265 | 341° | 9km/h | 31693m | 6.4m/s | -41.8°C | 4.5% | 0hPa | 5.6V | 00:00:00 | 00:00:00 | 00:00:00 | |
| OM5KV | 2026-09-05 12:43:59 | 44.80204 | 21.18283 | 198° | 20km/h | 31665m | 4.9m/s | -41.6°C | 4.3% | 0hPa | 5.6V | 00:00:00 | 00:00:00 | 00:00:00 | |
| OM5KV | 2026-09-05 12:43:58 | 44.80213 | 21.18279 | 133° | 20km/h | 31648m | 9.5m/s | -41.6°C | 4.3% | 0hPa | 5.6V | 00:00:00 | 00:00:00 | 00:00:00 | |
| OM5KV | 2026-09-05 12:43:51 | 44.80214 | 21.18242 | 190° | 16km/h | 31604m | 8.2m/s | -41.5°C | 4.3% | 0hPa | 5.6V | 00:00:00 | 00:00:00 | 00:00:00 | |
| OE3JTB-15 | 2026-09-05 12:43:50 | 44.80228 | 21.18262 | 224° | 20km/h | 31575m | 6.0m/s | -41.3°C | 0% | 0hPa | 5.6V | 00:00:00 | 00:00:00 | 00:00:00 | |
| OM5KV | 2026-09-05 12:43:38 | 44.80231 | 21.18256 | 190° | 24km/h | 31506m | 6.6m/s | -41.3°C | 4.2% | 0hPa | 5.6V | 00:00:00 | 00:00:00 | 00:00:00 | |
| OM5KV | 2026-09-05 12:43:28 | 44.80216 | 21.18260 | 36° | 9km/h | 31432m | 5.8m/s | -41.1°C | 4.1% | 0hPa | 5.6V | 00:00:00 | 00:00:00 | 00:00:00 | |
| OM5KV | 2026-09-05 12:43:22 | 44.80232 | 21.18264 | 83° | 13km/h | 31392m | 8.4m/s | -41.1°C | 4.1% | 0hPa | 5.6V | 00:00:00 | 00:00:00 | 00:00:00 | |
| OE3JTB-15 | 2026-09-05 12:43:18 | 44.80184 | 21.18275 | 266° | 11km/h | 31340m | 8.5m/s | -41.1°C | 0% | 0hPa | 5.6V | 00:00:00 | 00:00:00 | 00:00:00 | |
| OM5KV | 2026-09-05 12:43:10 | 44.80197 | 21.18258 | 86° | 9km/h | 31304m | 7.0m/s | -41.0°C | 4.1% | 0hPa | 5.6V | 00:00:00 | 00:00:00 | 00:00:00 | |
| LZ4TU-5 | 2026-09-05 12:42:47 | 44.80155 | 21.18293 | 345° | 2km/h | 31139m | 8.1m/s | -41.0°C | 4.0% | 0hPa | 5.6V | 00:00:00 | 00:00:00 | 00:00:00 | |
| LZ4TU-5 | 2026-09-05 12:42:42 | 44.80144 | 21.18298 | 322° | 20km/h | 31102m | 6.8m/s | -41.0°C | 4.1% | 0hPa | 5.6V | 00:00:00 | 00:00:00 | 00:00:00 | |
| LZ4TU-5 | 2026-09-05 12:41:26 | 44.80152 | 21.18319 | 63° | 18km/h | 30557m | 6.2m/s | -43.1°C | 4.2% | 0hPa | 5.6V | 00:00:00 | 00:00:00 | 00:00:00 | |
| LZ4TU-5 | 2026-09-05 12:41:21 | 44.80145 | 21.18327 | 340° | 20km/h | 30521m | 5.8m/s | -43.1°C | 4.2% | 0hPa | 5.6V | 00:00:00 | 00:00:00 | 00:00:00 | |
| LZ4TU-5 | 2026-09-05 12:40:07 | 44.80100 | 21.18431 | 235° | 4km/h | 29977m | 5.9m/s | -43.6°C | 3.8% | 0hPa | 5.6V | 00:00:00 | 00:00:00 | 00:00:00 | |
| LZ4TU-5 | 2026-09-05 12:40:03 | 44.80107 | 21.18429 | 206° | 7km/h | 29950m | 8.0m/s | -43.8°C | 3.8% | 0hPa | 5.6V | 00:00:00 | 00:00:00 | 00:00:00 | |
| LZ4TU-5 | 2026-09-05 12:38:49 | 44.80014 | 21.18424 | 65° | 20km/h | 29448m | 5.0m/s | -45.3°C | 3.8% | 0hPa | 5.6V | 00:00:00 | 00:00:00 | 00:00:00 | |
| LZ4TU-5 | 2026-09-05 12:38:44 | 44.80003 | 21.18424 | 331° | 29km/h | 29412m | 8.0m/s | -45.3°C | 3.8% | 0hPa | 5.6V | 00:00:00 | 00:00:00 | 00:00:00 | |
| OE3JTB-15 | 2026-09-05 12:38:19 | 44.79929 | 21.18476 | 321° | 15km/h | 29239m | 8.0m/s | -45.8°C | 0% | 0hPa | 5.6V | 00:00:00 | 00:00:00 | 00:00:00 | |
| OE3JTB-15 | 2026-09-05 12:37:48 | 44.79854 | 21.18454 | 1° | 26km/h | 29029m | 6.6m/s | -46.7°C | 0% | 0hPa | 5.6V | 00:00:00 | 00:00:00 | 00:00:00 | |
| LZ4TU-5 | 2026-09-05 12:37:34 | 44.79811 | 21.18469 | 340° | 26km/h | 28940m | 7.2m/s | -47.2°C | 4.3% | 0hPa | 5.6V | 00:00:00 | 00:00:00 | 00:00:00 | |
| LZ4TU-5 | 2026-09-05 12:37:28 | 44.79804 | 21.18479 | 357° | 7km/h | 28904m | 7.3m/s | -47.2°C | 4.3% | 0hPa | 5.6V | 00:00:00 | 00:00:00 | 00:00:00 | |
| LZ4TU-5 | 2026-09-05 12:36:14 | 44.79934 | 21.18538 | 136° | 16km/h | 28371m | 8.1m/s | -46.2°C | 4.1% | 0hPa | 5.6V | 00:00:00 | 00:00:00 | 00:00:00 | |
| LZ4TU-5 | 2026-09-05 12:36:09 | 44.79939 | 21.18512 | 144° | 20km/h | 28344m | 7.6m/s | -46.3°C | 4.1% | 0hPa | 5.6V | 00:00:00 | 00:00:00 | 00:00:00 | |
| LZ4TU-5 | 2026-09-05 12:35:08 | 44.80046 | 21.18239 | 99° | 46km/h | 27923m | 9.6m/s | -45.1°C | 4.1% | 0hPa | 5.6V | 00:00:00 | 00:00:00 | 00:00:00 | |
| LZ4TU-5 | 2026-09-05 12:35:03 | 44.80046 | 21.18193 | 107° | 18km/h | 27900m | 8.3m/s | -45.1°C | 4.2% | 0hPa | 5.6V | 00:00:00 | 00:00:00 | 00:00:00 | |
| OE3JTB-15 | 2026-09-05 12:34:03 | 44.80437 | 21.17819 | 89° | 29km/h | 27457m | 9.5m/s | -43.1°C | 0% | 0hPa | 5.6V | 00:00:00 | 00:00:00 | 00:00:00 | |
| LZ4TU-5 | 2026-09-05 12:33:54 | 44.80449 | 21.17757 | 146° | 29km/h | 27417m | 8.3m/s | -43.5°C | 4.3% | 0hPa | 5.7V | 00:00:00 | 00:00:00 | 00:00:00 | |
| LZ4TU-5 | 2026-09-05 12:33:49 | 44.80468 | 21.17716 | 80° | 22km/h | 27384m | 8.4m/s | -43.6°C | 4.4% | 0hPa | 5.7V | 00:00:00 | 00:00:00 | 00:00:00 | |
| OE3JTB-15 | 2026-09-05 12:33:34 | 44.80448 | 21.17546 | 115° | 31km/h | 27262m | 7.6m/s | -43.1°C | 0% | 0hPa | 5.7V | 00:00:00 | 00:00:00 | 00:00:00 | |
| LZ4TU-5 | 2026-09-05 12:32:49 | 44.80381 | 21.17218 | 97° | 22km/h | 26987m | 7.3m/s | -44.4°C | 3.5% | 0hPa | 5.7V | 00:00:00 | 00:00:00 | 00:00:00 | |
| LZ4TU-5 | 2026-09-05 12:32:44 | 44.80388 | 21.17193 | 78° | 24km/h | 26961m | 6.4m/s | -44.5°C | 3.4% | 0hPa | 5.7V | 00:00:00 | 00:00:00 | 00:00:00 | |
| OE3JTB-15 | 2026-09-05 12:32:33 | 44.80356 | 21.17062 | 80° | 18km/h | 26872m | 3.9m/s | -44.6°C | 0% | 0hPa | 5.7V | 00:00:00 | 00:00:00 | 00:00:00 | |
| LZ4TU-5 | 2026-09-05 12:30:47 | 44.80047 | 21.16490 | 18° | 40km/h | 26202m | 7.1m/s | -47.7°C | 3.7% | 0hPa | 5.7V | 00:00:00 | 00:00:00 | 00:00:00 | |
| LZ4TU-5 | 2026-09-05 12:30:42 | 44.80028 | 21.16482 | 106° | 7km/h | 26166m | 5.4m/s | -47.6°C | 3.9% | 0hPa | 5.7V | 00:00:00 | 00:00:00 | 00:00:00 | |
| LZ4TU-5 | 2026-09-05 12:29:39 | 44.79867 | 21.16229 | 40° | 46km/h | 25753m | 3.5m/s | -50.5°C | 4.2% | 0hPa | 5.7V | 00:00:00 | 00:00:00 | 00:00:00 | |
| LZ4TU-5 | 2026-09-05 12:29:34 | 44.79825 | 21.16207 | 14° | 18km/h | 25716m | 8.1m/s | -50.5°C | 4.1% | 0hPa | 5.7V | 00:00:00 | 00:00:00 | 00:00:00 | |
| LZ4TU-5 | 2026-09-05 12:28:23 | 44.79521 | 21.16112 | 25° | 18km/h | 25255m | 5.5m/s | -51.6°C | 4.0% | 0hPa | 5.7V | 00:00:00 | 00:00:00 | 00:00:00 | |
| LZ4TU-5 | 2026-09-05 12:28:18 | 44.79503 | 21.16096 | 20° | 16km/h | 25224m | 5.1m/s | -51.5°C | 3.9% | 0hPa | 5.7V | 00:00:00 | 00:00:00 | 00:00:00 | |
| LZ4TU-5 | 2026-09-05 12:27:16 | 44.79408 | 21.15997 | 82° | 13km/h | 24817m | 5.6m/s | -51.6°C | 4.0% | 0hPa | 5.7V | 00:00:00 | 00:00:00 | 00:00:00 | |
| LZ4TU-5 | 2026-09-05 12:27:11 | 44.79422 | 21.15979 | 130° | 9km/h | 24781m | 9.9m/s | -51.7°C | 3.9% | 0hPa | 5.7V | 00:00:00 | 00:00:00 | 00:00:00 | |
| LZ4TU-5 | 2026-09-05 12:25:19 | 44.79250 | 21.15755 | 139° | 18km/h | 24049m | 5.5m/s | -52.3°C | 3.8% | 0hPa | 5.7V | 00:00:00 | 00:00:00 | 00:00:00 | |
| LZ4TU-5 | 2026-09-05 12:25:15 | 44.79265 | 21.15735 | 120° | 20km/h | 24019m | 9.0m/s | -52.6°C | 3.9% | 0hPa | 5.7V | 00:00:00 | 00:00:00 | 00:00:00 | |
| LZ4TU-5 | 2026-09-05 12:23:16 | 44.79159 | 21.14938 | 53° | 27km/h | 23223m | 7.0m/s | -52.7°C | 3.8% | 0hPa | 5.7V | 00:00:00 | 00:00:00 | 00:00:00 | |
| LZ4TU-5 | 2026-09-05 12:23:13 | 44.79145 | 21.14911 | 41° | 24km/h | 23194m | 6.7m/s | -52.7°C | 3.8% | 0hPa | 5.7V | 00:00:00 | 00:00:00 | 00:00:00 | |
| LZ4TU-5 | 2026-09-05 12:21:05 | 44.78790 | 21.14586 | 41° | 20km/h | 22360m | 5.8m/s | -54.3°C | 3.7% | 0hPa | 5.7V | 00:00:00 | 00:00:00 | 00:00:00 | |
| LZ4TU-5 | 2026-09-05 12:21:00 | 44.78777 | 21.14572 | 51° | 20km/h | 22331m | 7.5m/s | -54.4°C | 3.6% | 0hPa | 5.7V | 00:00:00 | 00:00:00 | 00:00:00 | |
| OE3JTB-15 | 2026-09-05 12:20:04 | 44.78629 | 21.14321 | 23° | 15km/h | 21985m | 5.5m/s | -53.5°C | 0% | 0hPa | 5.7V | 00:00:00 | 00:00:00 | 00:00:00 | |
| OE3JTB-15 | 2026-09-05 12:19:34 | 44.78520 | 21.14240 | 16° | 15km/h | 21797m | 6.2m/s | -53.0°C | 0% | 0hPa | 5.7V | 00:00:00 | 00:00:00 | 00:00:00 | |
| OE3JTB-15 | 2026-09-05 12:19:05 | 44.78486 | 21.14218 | 73° | 13km/h | 21617m | 6.4m/s | -53.1°C | 0% | 0hPa | 5.7V | 00:00:00 | 00:00:00 | 00:00:00 | |
| LZ4TU-5 | 2026-09-05 12:18:53 | 44.78479 | 21.14195 | 17° | 18km/h | 21541m | 6.2m/s | -53.5°C | 3.3% | 0hPa | 5.7V | 00:00:00 | 00:00:00 | 00:00:00 | |
| LZ4TU-5 | 2026-09-05 12:18:48 | 44.78475 | 21.14179 | 142° | 20km/h | 21507m | 5.9m/s | -53.5°C | 3.3% | 0hPa | 5.7V | 00:00:00 | 00:00:00 | 00:00:00 | |
| OE3JTB-15 | 2026-09-05 12:18:35 | 44.78483 | 21.14153 | 119° | 13km/h | 21429m | 6.3m/s | -53.7°C | 0% | 0hPa | 5.7V | 00:00:00 | 00:00:00 | 00:00:00 | |
| LZ4TU-5 | 2026-09-05 12:16:36 | 44.78264 | 21.13491 | 44° | 42km/h | 20711m | 6.3m/s | -56.8°C | 3.8% | 0hPa | 5.7V | 00:00:00 | 00:00:00 | 00:00:00 | |
| LZ4TU-5 | 2026-09-05 12:16:31 | 44.78237 | 21.13454 | 52° | 26km/h | 20679m | 8.3m/s | -56.6°C | 3.7% | 0hPa | 5.7V | 00:00:00 | 00:00:00 | 00:00:00 | |
| LZ4TU-5 | 2026-09-05 12:14:09 | 44.77588 | 21.12534 | 49° | 33km/h | 19798m | 5.5m/s | -56.4°C | 4.0% | 0hPa | 5.7V | 00:00:00 | 00:00:00 | 00:00:00 | |
| LZ4TU-5 | 2026-09-05 12:14:04 | 44.77564 | 21.12503 | 36° | 15km/h | 19768m | 6.8m/s | -56.3°C | 3.8% | 0hPa | 5.7V | 00:00:00 | 00:00:00 | 00:00:00 | |
| LZ4TU-5 | 2026-09-05 12:13:59 | 44.77549 | 21.12469 | 65° | 31km/h | 19738m | 6.2m/s | -56.2°C | 3.7% | 0hPa | 5.7V | 00:00:00 | 00:00:00 | 00:00:00 | |
| LZ4TU-5 | 2026-09-05 12:13:54 | 44.77526 | 21.12433 | 38° | 24km/h | 19709m | 6.9m/s | -56.5°C | 4.1% | 0hPa | 5.7V | 00:00:00 | 00:00:00 | 00:00:00 | |
| OE3JTB-15 | 2026-09-05 12:12:24 | 44.77327 | 21.11549 | 54° | 24km/h | 19162m | 6.4m/s | -57.5°C | 0% | 0hPa | 5.7V | 00:00:00 | 00:00:00 | 00:00:00 | |
| OE3JTB-15 | 2026-09-05 12:11:52 | 44.77206 | 21.11338 | 20° | 18km/h | 18974m | 6.3m/s | -56.9°C | 0% | 0hPa | 5.7V | 00:00:00 | 00:00:00 | 00:00:00 | |
| OE3JTB-15 | 2026-09-05 12:11:22 | 44.77155 | 21.11176 | 80° | 22km/h | 18798m | 4.0m/s | -56.0°C | 0% | 0hPa | 5.7V | 00:00:00 | 00:00:00 | 00:00:00 | |
| LZ4TU-5 | 2026-09-05 12:11:21 | 44.77155 | 21.11169 | 93° | 22km/h | 18792m | 6.5m/s | -56.9°C | 4.2% | 0hPa | 0V | 00:00:00 | 00:00:00 | 00:00:00 | |
| LZ4TU-5 | 2026-09-05 12:11:16 | 44.77156 | 21.11132 | 66° | 18km/h | 18761m | 6.4m/s | -56.6°C | 3.8% | 0hPa | 0V | 00:00:00 | 00:00:00 | 00:00:00 | |
| LZ4TU-5 | 2026-09-05 12:09:29 | 44.77194 | 21.10128 | 86° | 37km/h | 18139m | 7.6m/s | -57.1°C | 4.4% | 0hPa | 0V | 00:00:00 | 00:00:00 | 00:00:00 | |
| LZ4TU-5 | 2026-09-05 12:09:24 | 44.77189 | 21.10053 | 94° | 44km/h | 18113m | 3.4m/s | -57.6°C | 5.0% | 0hPa | 0V | 00:00:00 | 00:00:00 | 00:00:00 | |
| LZ4TU-5 | 2026-09-05 12:07:07 | 44.77123 | 21.08231 | 83° | 47km/h | 17288m | 6.1m/s | -58.4°C | 5.5% | 0hPa | 0V | 00:00:00 | 00:00:00 | 00:00:00 | |
| LZ4TU-5 | 2026-09-05 12:07:02 | 44.77118 | 21.08162 | 86° | 33km/h | 17256m | 7.0m/s | -58.5°C | 5.4% | 0hPa | 0V | 00:00:00 | 00:00:00 | 00:00:00 | |
| LZ4TU-5 | 2026-09-05 12:04:48 | 44.76749 | 21.06292 | 104° | 47km/h | 16505m | 5.3m/s | -62.9°C | 7.6% | 0hPa | 0V | 00:00:00 | 00:00:00 | 00:00:00 | |
| LZ4TU-5 | 2026-09-05 12:04:44 | 44.76759 | 21.06230 | 95° | 49km/h | 16487m | 4.8m/s | -62.8°C | 7.8% | 0hPa | 0V | 00:00:00 | 00:00:00 | 00:00:00 | |
| LZ4TU-5 | 2026-09-05 12:02:35 | 44.76875 | 21.03378 | 88° | 64km/h | 15778m | 7.4m/s | -60.5°C | 6.0% | 0hPa | 0V | 00:00:00 | 00:00:00 | 00:00:00 | |
| LZ4TU-5 | 2026-09-05 12:02:30 | 44.76869 | 21.03255 | 96° | 58km/h | 15741m | 3.9m/s | -60.5°C | 6.0% | 0hPa | 0V | 00:00:00 | 00:00:00 | 00:00:00 | |
| LZ4TU-5 | 2026-09-05 12:02:25 | 44.76877 | 21.03157 | 89° | 75km/h | 15720m | 6.8m/s | -60.6°C | 6.1% | 0hPa | 0V | 00:00:00 | 00:00:00 | 00:00:00 | |
| LZ4TU-5 | 2026-09-05 12:02:18 | 44.76857 | 21.03028 | 80° | 53km/h | 15674m | 8.5m/s | -60.6°C | 6.2% | 0hPa | 0V | 00:00:00 | 00:00:00 | 00:00:00 | |
| LZ4TU-5 | 2026-09-05 12:02:13 | 44.76847 | 21.02931 | 100° | 44km/h | 15635m | 7.8m/s | -61.6°C | 6.8% | 0hPa | 0V | 00:00:00 | 00:00:00 | 00:00:00 | |
| LZ4TU-5 | 2026-09-05 12:00:11 | 44.76694 | 21.00795 | 126° | 31km/h | 14886m | 7.8m/s | -59.3°C | 8.7% | 0hPa | 0V | 00:00:00 | 00:00:00 | 00:00:00 | |
| LZ4TU-5 | 2026-09-05 12:00:06 | 44.76707 | 21.00707 | 104° | 58km/h | 14845m | 4.9m/s | -59.0°C | 9.1% | 0hPa | 0V | 00:00:00 | 00:00:00 | 00:00:00 | |
| LZ4TU-5 | 2026-09-05 11:56:42 | 44.77040 | 20.94842 | 98° | 104km/h | 13641m | 6.4m/s | -64.9°C | 31.0% | 0hPa | 0V | 00:00:00 | 00:00:00 | 00:00:00 | |
| LZ4TU-5 | 2026-09-05 11:56:36 | 44.77063 | 20.94637 | 95° | 110km/h | 13611m | 5.3m/s | -65.2°C | 30.8% | 0hPa | 0V | 00:00:00 | 00:00:00 | 00:00:00 | |
| LZ4TU-5 | 2026-09-05 11:56:31 | 44.77071 | 20.94416 | 100° | 119km/h | 13589m | 3.9m/s | -65.1°C | 0% | 0hPa | 0V | 00:00:00 | 00:00:00 | 00:00:00 | |
| LZ4TU-5 | 2026-09-05 11:56:24 | 44.77082 | 20.94177 | 88° | 117km/h | 13554m | 5.2m/s | -64.9°C | 29.6% | 0hPa | 0V | 00:00:00 | 00:00:00 | 00:00:00 | |
| LZ4TU-5 | 2026-09-05 11:56:19 | 44.77118 | 20.93974 | 113° | 95km/h | 13533m | 2.2m/s | -64.8°C | 28.9% | 0hPa | 0V | 00:00:00 | 00:00:00 | 00:00:00 | |
| LZ4TU-5 | 2026-09-05 11:56:15 | 44.77117 | 20.93835 | 83° | 131km/h | 13508m | 7.1m/s | -64.6°C | 28.8% | 0hPa | 0V | 00:00:00 | 00:00:00 | 00:00:00 | |
| LZ4TU-5 | 2026-09-05 11:56:10 | 44.77151 | 20.93606 | 116° | 108km/h | 13479m | 4.5m/s | -64.3°C | 28.5% | 0hPa | 0V | 00:00:00 | 00:00:00 | 00:00:00 | |
| LZ4TU-5 | 2026-09-05 11:53:37 | 44.77025 | 20.87801 | 89° | 106km/h | 12553m | 6.6m/s | -58.0°C | 25.5% | 0hPa | 0V | 00:00:00 | 00:00:00 | 00:00:00 | |
| LZ4TU-5 | 2026-09-05 11:53:32 | 44.77021 | 20.87608 | 89° | 102km/h | 12523m | 6.9m/s | -57.9°C | 25.4% | 0hPa | 0V | 00:00:00 | 00:00:00 | 00:00:00 | |
| LZ4TU-5 | 2026-09-05 11:52:47 | 44.76990 | 20.85908 | 94° | 102km/h | 12254m | 5.6m/s | -55.8°C | 24.3% | 0hPa | 0V | 00:00:00 | 00:00:00 | 00:00:00 | |
| LZ4TU-5 | 2026-09-05 11:52:42 | 44.76993 | 20.85710 | 88° | 117km/h | 12226m | 4.2m/s | -55.6°C | 24.3% | 0hPa | 0V | 00:00:00 | 00:00:00 | 00:00:00 | |
| LZ4TU-5 | 2026-09-05 11:51:35 | 44.76937 | 20.83203 | 94° | 110km/h | 11790m | 6.2m/s | -52.7°C | 25.1% | 0hPa | 0V | 00:00:00 | 00:00:00 | 00:00:00 | |
| LZ4TU-5 | 2026-09-05 11:51:30 | 44.76944 | 20.83027 | 90° | 104km/h | 11757m | 6.6m/s | -52.4°C | 24.9% | 0hPa | 0V | 00:00:00 | 00:00:00 | 00:00:00 | |
| LZ4TU-5 | 2026-09-05 11:50:00 | 44.76778 | 20.79721 | 88° | 97km/h | 11182m | 6.7m/s | -47.6°C | 18.9% | 0hPa | 0V | 00:00:00 | 00:00:00 | 00:00:00 | |
| LZ4TU-5 | 2026-09-05 11:49:56 | 44.76772 | 20.79548 | 87° | 102km/h | 11147m | 7.4m/s | -47.2°C | 18.7% | 0hPa | 0V | 00:00:00 | 00:00:00 | 00:00:00 | |
| LZ4TU-5 | 2026-09-05 11:48:54 | 44.76725 | 20.77406 | 92° | 86km/h | 10767m | 6.8m/s | -44.5°C | 17.2% | 0hPa | 0V | 00:00:00 | 00:00:00 | 00:00:00 | |
| LZ4TU-5 | 2026-09-05 11:48:49 | 44.76721 | 20.77246 | 90° | 100km/h | 10737m | 6.4m/s | -44.4°C | 17.2% | 0hPa | 0V | 00:00:00 | 00:00:00 | 00:00:00 | |
| LZ4TU-5 | 2026-09-05 11:46:41 | 44.76712 | 20.72942 | 88° | 99km/h | 9942m | 7.4m/s | -38.5°C | 17.2% | 0hPa | 0V | 00:00:00 | 00:00:00 | 00:00:00 | |
| LZ4TU-5 | 2026-09-05 11:46:36 | 44.76715 | 20.72774 | 102° | 88km/h | 9913m | 4.8m/s | -38.2°C | 17.1% | 0hPa | 0V | 00:00:00 | 00:00:00 | 00:00:00 | |
| LZ4TU-5 | 2026-09-05 11:44:53 | 44.76730 | 20.69365 | 89° | 100km/h | 9292m | 4.5m/s | -33.2°C | 15.3% | 0hPa | 0V | 00:00:00 | 00:00:00 | 00:00:00 | |
| LZ4TU-5 | 2026-09-05 11:44:48 | 44.76730 | 20.69193 | 89° | 91km/h | 9266m | 5.3m/s | -33.0°C | 15.6% | 0hPa | 0V | 00:00:00 | 00:00:00 | 00:00:00 | |
| LZ4TU-5 | 2026-09-05 11:43:00 | 44.76823 | 20.65988 | 95° | 75km/h | 8646m | 5.6m/s | -29.6°C | 17.3% | 0hPa | 0V | 00:00:00 | 00:00:00 | 00:00:00 | |
| LZ4TU-5 | 2026-09-05 11:42:55 | 44.76833 | 20.65867 | 98° | 71km/h | 8620m | 5.9m/s | -29.5°C | 17.5% | 0hPa | 0V | 00:00:00 | 00:00:00 | 00:00:00 | |
| LZ4TU-5 | 2026-09-05 11:41:18 | 44.76937 | 20.63541 | 91° | 91km/h | 8107m | 3.4m/s | -25.9°C | 20.5% | 0hPa | 0V | 00:00:00 | 00:00:00 | 00:00:00 | |
| LZ4TU-5 | 2026-09-05 11:41:13 | 44.76932 | 20.63430 | 75° | 53km/h | 8076m | 8.0m/s | -25.7°C | 19.1% | 0hPa | 0V | 00:00:00 | 00:00:00 | 00:00:00 | |
| LZ4TU-5 | 2026-09-05 11:39:33 | 44.76898 | 20.61350 | 101° | 77km/h | 7535m | 5.5m/s | -21.8°C | 23.2% | 0hPa | 0V | 00:00:00 | 00:00:00 | 00:00:00 | |
| LZ4TU-5 | 2026-09-05 11:39:28 | 44.76898 | 20.61245 | 68° | 53km/h | 7504m | 4.9m/s | -21.5°C | 22.9% | 0hPa | 0V | 00:00:00 | 00:00:00 | 00:00:00 | |
| LZ4TU-5 | 2026-09-05 11:37:59 | 44.76932 | 20.59347 | 73° | 55km/h | 6990m | 6.8m/s | -17.3°C | 23.5% | 0hPa | 0V | 00:00:00 | 00:00:00 | 00:00:00 | |
| LZ4TU-5 | 2026-09-05 11:37:54 | 44.76937 | 20.59235 | 115° | 51km/h | 6960m | 5.1m/s | -17.1°C | 22.9% | 0hPa | 0V | 00:00:00 | 00:00:00 | 00:00:00 |